الصفحة الرئيسية
METAR-TAF:

METAR-TAF

مطار :

Tanegashima, اليابان

دائرة عرض: 30-33N, خط طول: 130-57E, ارتفاع: 92 متر

مراقبة الطقس الحالي

تاريخ ووقت الإصدار 9ساعات و 21 دقيقة قبل الساعة 09:00UTC
ريح 9 عقدة من الشرق/الجنوب الشرقي
درجة الحرارة 23°درجة مئوية
الرطوبة 94%
ضغط 1004 hPa
الرؤية 10 كم أو أكثر
غيوم قليلة على ارتفاع 800 قدم
غيوم متفرقة على ارتفاع 1500 قدم
غيوم مفككة على ارتفاع 9000 قدم
زخات من الأمطار الخفيفة

METAR: RJFG 150900Z 12009KT 9999 -SHRA FEW008 SCT015 BKN090 23/22 Q1004

زمن: 03:21 (18:21 UTC)


TAF: مفقودة

أرصاد الطقس والتوقعات من أكثر من 4000 مطار (تقارير الطقس للمطار METAR والتنبؤ بالطقس بالمطارTAF).

المحطات المتاحة هي النقط الصفراء والحمراء على الخريطة.

حرك المؤشر فوق النقطة لمعرفة اسم المحطة.

ثم انقر لمعرفة أرصاد وتوقعات الطقس.

لتغيير الخارطة: اضغط على الأزرار الخضراء مع رمز الصليب الأسود للتكبير. على الزر الأخضر مع شرطة للتصغير، أو على الأسهم الخضراء للخرائط المجاورة.


METAR-TAF: